sensor_id;sensor_type;location;lat;lon;timestamp;temperature;humidity
913;DHT22;443;51.448;7.028;2023-04-24T00:01:39;15.00;72.20
913;DHT22;443;51.448;7.028;2023-04-24T00:04:08;15.00;73.00
913;DHT22;443;51.448;7.028;2023-04-24T00:06:36;15.10;73.40
913;DHT22;443;51.448;7.028;2023-04-24T00:09:04;15.10;73.00
913;DHT22;443;51.448;7.028;2023-04-24T00:11:31;15.10;73.00
913;DHT22;443;51.448;7.028;2023-04-24T00:13:57;15.10;73.50
913;DHT22;443;51.448;7.028;2023-04-24T00:16:26;15.10;74.10
913;DHT22;443;51.448;7.028;2023-04-24T00:18:53;15.10;74.90
913;DHT22;443;51.448;7.028;2023-04-24T00:21:20;15.10;73.60
913;DHT22;443;51.448;7.028;2023-04-24T00:23:47;15.00;74.10
913;DHT22;443;51.448;7.028;2023-04-24T00:26:14;15.00;74.30
913;DHT22;443;51.448;7.028;2023-04-24T00:28:40;15.00;72.80
913;DHT22;443;51.448;7.028;2023-04-24T00:31:07;15.00;72.50
913;DHT22;443;51.448;7.028;2023-04-24T00:33:36;15.00;73.90
913;DHT22;443;51.448;7.028;2023-04-24T00:36:03;15.10;74.60
913;DHT22;443;51.448;7.028;2023-04-24T00:38:29;15.00;73.80
913;DHT22;443;51.448;7.028;2023-04-24T00:40:56;15.00;75.70
913;DHT22;443;51.448;7.028;2023-04-24T00:43:23;15.00;74.80
913;DHT22;443;51.448;7.028;2023-04-24T00:45:50;15.00;75.50
913;DHT22;443;51.448;7.028;2023-04-24T00:48:17;15.00;75.90
913;DHT22;443;51.448;7.028;2023-04-24T00:50:45;15.00;72.80
913;DHT22;443;51.448;7.028;2023-04-24T00:53:12;15.00;74.40
913;DHT22;443;51.448;7.028;2023-04-24T00:55:39;15.00;74.80
913;DHT22;443;51.448;7.028;2023-04-24T00:58:06;14.90;73.40
913;DHT22;443;51.448;7.028;2023-04-24T01:00:33;14.90;73.50
913;DHT22;443;51.448;7.028;2023-04-24T01:03:01;14.90;73.20
913;DHT22;443;51.448;7.028;2023-04-24T01:05:31;14.90;72.20
913;DHT22;443;51.448;7.028;2023-04-24T01:08:01;14.90;74.80
913;DHT22;443;51.448;7.028;2023-04-24T01:10:29;14.90;73.00
913;DHT22;443;51.448;7.028;2023-04-24T01:12:58;14.90;74.30
913;DHT22;443;51.448;7.028;2023-04-24T01:15:25;14.90;74.20
913;DHT22;443;51.448;7.028;2023-04-24T01:17:51;14.90;74.10
913;DHT22;443;51.448;7.028;2023-04-24T01:20:19;14.80;74.00
913;DHT22;443;51.448;7.028;2023-04-24T01:22:47;14.80;72.60
913;DHT22;443;51.448;7.028;2023-04-24T01:25:14;14.90;72.80
913;DHT22;443;51.448;7.028;2023-04-24T01:27:41;14.80;73.30
913;DHT22;443;51.448;7.028;2023-04-24T01:30:09;14.80;72.80
913;DHT22;443;51.448;7.028;2023-04-24T01:32:36;14.80;72.60
913;DHT22;443;51.448;7.028;2023-04-24T01:35:04;14.70;73.40
913;DHT22;443;51.448;7.028;2023-04-24T01:37:31;14.80;75.70
913;DHT22;443;51.448;7.028;2023-04-24T01:39:59;14.70;73.40
913;DHT22;443;51.448;7.028;2023-04-24T01:42:26;14.70;74.90
913;DHT22;443;51.448;7.028;2023-04-24T01:44:54;14.70;74.80
913;DHT22;443;51.448;7.028;2023-04-24T01:47:20;14.70;73.10
913;DHT22;443;51.448;7.028;2023-04-24T01:49:48;14.70;75.70
913;DHT22;443;51.448;7.028;2023-04-24T01:52:15;14.60;74.50
913;DHT22;443;51.448;7.028;2023-04-24T01:54:41;14.60;72.70
913;DHT22;443;51.448;7.028;2023-04-24T01:57:10;14.60;73.30
913;DHT22;443;51.448;7.028;2023-04-24T01:59:36;14.60;74.80
913;DHT22;443;51.448;7.028;2023-04-24T02:02:03;14.60;73.70
913;DHT22;443;51.448;7.028;2023-04-24T02:04:30;14.60;75.70
913;DHT22;443;51.448;7.028;2023-04-24T02:06:57;14.60;74.30
913;DHT22;443;51.448;7.028;2023-04-24T02:09:23;14.60;72.90
913;DHT22;443;51.448;7.028;2023-04-24T02:11:50;14.50;75.00
913;DHT22;443;51.448;7.028;2023-04-24T02:14:18;14.60;74.30
913;DHT22;443;51.448;7.028;2023-04-24T02:16:45;14.60;74.70
913;DHT22;443;51.448;7.028;2023-04-24T02:19:12;14.60;75.20
913;DHT22;443;51.448;7.028;2023-04-24T02:21:38;14.60;74.50
913;DHT22;443;51.448;7.028;2023-04-24T02:24:05;14.60;74.80
913;DHT22;443;51.448;7.028;2023-04-24T02:26:32;14.50;72.40
913;DHT22;443;51.448;7.028;2023-04-24T02:28:59;14.50;75.40
913;DHT22;443;51.448;7.028;2023-04-24T02:31:27;14.50;73.70
913;DHT22;443;51.448;7.028;2023-04-24T02:33:54;14.50;73.10
913;DHT22;443;51.448;7.028;2023-04-24T02:36:20;14.50;75.10
913;DHT22;443;51.448;7.028;2023-04-24T02:38:47;14.50;74.70
913;DHT22;443;51.448;7.028;2023-04-24T02:41:14;14.50;74.30
913;DHT22;443;51.448;7.028;2023-04-24T02:43:41;14.40;72.60
913;DHT22;443;51.448;7.028;2023-04-24T02:46:07;14.40;74.70
913;DHT22;443;51.448;7.028;2023-04-24T02:48:35;14.40;74.00
913;DHT22;443;51.448;7.028;2023-04-24T02:51:03;14.40;75.50
913;DHT22;443;51.448;7.028;2023-04-24T02:53:30;14.40;72.90
913;DHT22;443;51.448;7.028;2023-04-24T02:55:57;14.40;74.30
913;DHT22;443;51.448;7.028;2023-04-24T02:58:23;14.50;75.60
913;DHT22;443;51.448;7.028;2023-04-24T03:00:53;14.50;76.80
913;DHT22;443;51.448;7.028;2023-04-24T03:03:21;14.40;74.40
913;DHT22;443;51.448;7.028;2023-04-24T03:05:49;14.40;74.00
913;DHT22;443;51.448;7.028;2023-04-24T03:08:16;14.40;75.30
913;DHT22;443;51.448;7.028;2023-04-24T03:10:43;14.40;74.30
913;DHT22;443;51.448;7.028;2023-04-24T03:13:10;14.40;73.30
913;DHT22;443;51.448;7.028;2023-04-24T03:15:36;14.40;74.80
913;DHT22;443;51.448;7.028;2023-04-24T03:18:03;14.40;76.50
913;DHT22;443;51.448;7.028;2023-04-24T03:20:30;14.40;75.70
913;DHT22;443;51.448;7.028;2023-04-24T03:22:58;14.40;73.50
913;DHT22;443;51.448;7.028;2023-04-24T03:25:25;14.40;75.60
913;DHT22;443;51.448;7.028;2023-04-24T03:27:52;14.40;73.70
913;DHT22;443;51.448;7.028;2023-04-24T03:30:20;14.40;76.00
913;DHT22;443;51.448;7.028;2023-04-24T03:32:46;14.30;73.90
913;DHT22;443;51.448;7.028;2023-04-24T03:35:13;14.30;74.20
913;DHT22;443;51.448;7.028;2023-04-24T03:37:40;14.40;75.80
913;DHT22;443;51.448;7.028;2023-04-24T03:40:09;14.40;73.60
913;DHT22;443;51.448;7.028;2023-04-24T03:42:36;14.30;74.10
913;DHT22;443;51.448;7.028;2023-04-24T03:45:03;14.40;75.20
913;DHT22;443;51.448;7.028;2023-04-24T03:47:30;14.40;76.10
913;DHT22;443;51.448;7.028;2023-04-24T03:49:56;14.40;76.00
913;DHT22;443;51.448;7.028;2023-04-24T03:52:23;14.30;73.80
913;DHT22;443;51.448;7.028;2023-04-24T03:54:50;14.40;76.60
913;DHT22;443;51.448;7.028;2023-04-24T03:57:19;14.40;74.80
913;DHT22;443;51.448;7.028;2023-04-24T03:59:45;14.40;75.60
913;DHT22;443;51.448;7.028;2023-04-24T04:02:12;14.40;75.80
913;DHT22;443;51.448;7.028;2023-04-24T04:04:39;14.30;74.80
913;DHT22;443;51.448;7.028;2023-04-24T04:07:05;14.30;75.00
913;DHT22;443;51.448;7.028;2023-04-24T04:09:33;14.40;72.80
913;DHT22;443;51.448;7.028;2023-04-24T04:11:59;14.30;73.90
913;DHT22;443;51.448;7.028;2023-04-24T04:14:28;14.40;75.40
913;DHT22;443;51.448;7.028;2023-04-24T04:16:55;14.40;73.40
913;DHT22;443;51.448;7.028;2023-04-24T04:19:23;14.30;75.40
913;DHT22;443;51.448;7.028;2023-04-24T04:21:49;14.40;76.10
913;DHT22;443;51.448;7.028;2023-04-24T04:24:18;14.40;74.70
913;DHT22;443;51.448;7.028;2023-04-24T04:26:46;14.30;73.20
913;DHT22;443;51.448;7.028;2023-04-24T04:29:12;14.40;74.40
913;DHT22;443;51.448;7.028;2023-04-24T04:31:43;14.40;74.40
913;DHT22;443;51.448;7.028;2023-04-24T04:34:09;14.40;73.10
913;DHT22;443;51.448;7.028;2023-04-24T04:36:37;14.40;74.00
913;DHT22;443;51.448;7.028;2023-04-24T04:39:05;14.40;75.40
913;DHT22;443;51.448;7.028;2023-04-24T04:41:32;14.50;75.00
913;DHT22;443;51.448;7.028;2023-04-24T04:44:00;14.50;74.20
913;DHT22;443;51.448;7.028;2023-04-24T04:46:30;14.50;76.10
913;DHT22;443;51.448;7.028;2023-04-24T04:48:59;14.50;75.30
913;DHT22;443;51.448;7.028;2023-04-24T04:51:26;14.50;74.50
913;DHT22;443;51.448;7.028;2023-04-24T04:53:53;14.50;76.00
913;DHT22;443;51.448;7.028;2023-04-24T04:56:20;14.50;75.60
913;DHT22;443;51.448;7.028;2023-04-24T04:58:47;14.60;76.10
913;DHT22;443;51.448;7.028;2023-04-24T05:01:14;14.50;74.30
913;DHT22;443;51.448;7.028;2023-04-24T05:03:41;14.50;72.90
913;DHT22;443;51.448;7.028;2023-04-24T05:06:09;14.50;74.30
913;DHT22;443;51.448;7.028;2023-04-24T05:08:36;14.50;72.80
913;DHT22;443;51.448;7.028;2023-04-24T05:11:02;14.50;72.70
913;DHT22;443;51.448;7.028;2023-04-24T05:13:29;14.50;74.10
913;DHT22;443;51.448;7.028;2023-04-24T05:15:57;14.50;76.10
913;DHT22;443;51.448;7.028;2023-04-24T05:18:23;14.50;74.20
913;DHT22;443;51.448;7.028;2023-04-24T05:20:50;14.50;73.30
913;DHT22;443;51.448;7.028;2023-04-24T05:23:18;14.50;72.80
913;DHT22;443;51.448;7.028;2023-04-24T05:25:45;14.40;74.10
913;DHT22;443;51.448;7.028;2023-04-24T05:28:12;14.50;75.70
913;DHT22;443;51.448;7.028;2023-04-24T05:30:38;14.50;74.30
913;DHT22;443;51.448;7.028;2023-04-24T05:33:05;14.50;74.70
913;DHT22;443;51.448;7.028;2023-04-24T05:35:32;14.60;77.10
913;DHT22;443;51.448;7.028;2023-04-24T05:37:59;14.60;77.20
913;DHT22;443;51.448;7.028;2023-04-24T05:40:27;14.50;74.50
913;DHT22;443;51.448;7.028;2023-04-24T05:42:54;14.50;76.00
913;DHT22;443;51.448;7.028;2023-04-24T05:45:20;14.40;75.20
913;DHT22;443;51.448;7.028;2023-04-24T05:47:47;14.50;77.90
913;DHT22;443;51.448;7.028;2023-04-24T05:50:14;14.50;75.20
913;DHT22;443;51.448;7.028;2023-04-24T05:52:40;14.40;74.60
913;DHT22;443;51.448;7.028;2023-04-24T05:55:08;14.40;75.20
913;DHT22;443;51.448;7.028;2023-04-24T05:57:36;14.40;76.40
913;DHT22;443;51.448;7.028;2023-04-24T06:00:03;14.40;75.70
913;DHT22;443;51.448;7.028;2023-04-24T06:02:30;14.40;77.10
913;DHT22;443;51.448;7.028;2023-04-24T06:04:58;14.30;74.40
913;DHT22;443;51.448;7.028;2023-04-24T06:07:25;14.30;74.60
913;DHT22;443;51.448;7.028;2023-04-24T06:09:52;14.30;75.50
913;DHT22;443;51.448;7.028;2023-04-24T06:12:19;14.40;76.30
913;DHT22;443;51.448;7.028;2023-04-24T06:14:47;14.40;75.50
913;DHT22;443;51.448;7.028;2023-04-24T06:17:15;14.40;75.50
913;DHT22;443;51.448;7.028;2023-04-24T06:19:41;14.40;77.60
913;DHT22;443;51.448;7.028;2023-04-24T06:22:08;14.30;76.10
913;DHT22;443;51.448;7.028;2023-04-24T06:24:35;14.30;75.50
913;DHT22;443;51.448;7.028;2023-04-24T06:27:02;14.30;75.40
913;DHT22;443;51.448;7.028;2023-04-24T06:29:29;14.40;77.90
913;DHT22;443;51.448;7.028;2023-04-24T06:31:57;14.30;75.70
913;DHT22;443;51.448;7.028;2023-04-24T06:34:23;14.40;78.30
913;DHT22;443;51.448;7.028;2023-04-24T06:36:50;14.40;76.10
913;DHT22;443;51.448;7.028;2023-04-24T06:39:17;14.40;77.30
913;DHT22;443;51.448;7.028;2023-04-24T06:41:44;14.30;76.80
913;DHT22;443;51.448;7.028;2023-04-24T06:44:10;14.40;76.10
913;DHT22;443;51.448;7.028;2023-04-24T06:46:37;14.40;76.70
913;DHT22;443;51.448;7.028;2023-04-24T06:49:05;14.50;76.80
913;DHT22;443;51.448;7.028;2023-04-24T06:51:32;14.40;76.70
913;DHT22;443;51.448;7.028;2023-04-24T06:53:59;14.40;75.90
913;DHT22;443;51.448;7.028;2023-04-24T06:56:26;14.40;76.10
913;DHT22;443;51.448;7.028;2023-04-24T06:58:54;14.40;76.40
913;DHT22;443;51.448;7.028;2023-04-24T07:01:21;14.50;76.10
913;DHT22;443;51.448;7.028;2023-04-24T07:03:47;14.50;76.10
913;DHT22;443;51.448;7.028;2023-04-24T07:06:15;14.50;76.40
913;DHT22;443;51.448;7.028;2023-04-24T07:08:44;14.40;75.90
913;DHT22;443;51.448;7.028;2023-04-24T07:11:10;14.40;77.10
913;DHT22;443;51.448;7.028;2023-04-24T07:13:37;14.40;77.90
913;DHT22;443;51.448;7.028;2023-04-24T07:16:07;14.40;77.90
913;DHT22;443;51.448;7.028;2023-04-24T07:18:34;14.40;76.60
913;DHT22;443;51.448;7.028;2023-04-24T07:21:02;14.40;77.40
913;DHT22;443;51.448;7.028;2023-04-24T07:23:30;14.40;75.90
913;DHT22;443;51.448;7.028;2023-04-24T07:25:57;14.40;75.50
913;DHT22;443;51.448;7.028;2023-04-24T07:28:24;14.40;76.20
913;DHT22;443;51.448;7.028;2023-04-24T07:30:51;14.30;75.50
913;DHT22;443;51.448;7.028;2023-04-24T07:33:19;14.40;78.10
913;DHT22;443;51.448;7.028;2023-04-24T07:35:46;14.40;77.60
913;DHT22;443;51.448;7.028;2023-04-24T07:38:13;14.40;77.00
913;DHT22;443;51.448;7.028;2023-04-24T07:40:41;14.40;77.30
913;DHT22;443;51.448;7.028;2023-04-24T07:43:08;14.40;76.70
913;DHT22;443;51.448;7.028;2023-04-24T07:45:35;14.40;78.00
913;DHT22;443;51.448;7.028;2023-04-24T07:48:03;14.40;76.90
913;DHT22;443;51.448;7.028;2023-04-24T07:50:29;14.40;78.50
913;DHT22;443;51.448;7.028;2023-04-24T07:52:56;14.40;76.10
913;DHT22;443;51.448;7.028;2023-04-24T07:55:23;14.30;77.20
913;DHT22;443;51.448;7.028;2023-04-24T07:57:51;14.30;76.70
913;DHT22;443;51.448;7.028;2023-04-24T08:00:18;14.30;77.30
913;DHT22;443;51.448;7.028;2023-04-24T08:02:45;14.40;78.00
913;DHT22;443;51.448;7.028;2023-04-24T08:05:11;14.30;76.90
913;DHT22;443;51.448;7.028;2023-04-24T08:07:38;14.30;76.00
913;DHT22;443;51.448;7.028;2023-04-24T08:10:09;14.30;76.30
913;DHT22;443;51.448;7.028;2023-04-24T08:12:36;14.30;77.40
913;DHT22;443;51.448;7.028;2023-04-24T08:15:05;14.30;76.90
913;DHT22;443;51.448;7.028;2023-04-24T08:17:33;14.30;77.10
913;DHT22;443;51.448;7.028;2023-04-24T08:20:00;14.30;76.90
913;DHT22;443;51.448;7.028;2023-04-24T08:22:27;14.20;76.30
913;DHT22;443;51.448;7.028;2023-04-24T08:24:54;14.20;76.30
913;DHT22;443;51.448;7.028;2023-04-24T08:27:22;14.10;76.70
913;DHT22;443;51.448;7.028;2023-04-24T08:29:49;14.10;76.30
913;DHT22;443;51.448;7.028;2023-04-24T08:32:17;14.20;78.60
913;DHT22;443;51.448;7.028;2023-04-24T08:34:44;14.20;77.50
913;DHT22;443;51.448;7.028;2023-04-24T08:37:11;14.10;77.60
913;DHT22;443;51.448;7.028;2023-04-24T08:39:38;14.10;76.40
913;DHT22;443;51.448;7.028;2023-04-24T08:42:05;14.10;78.10
913;DHT22;443;51.448;7.028;2023-04-24T08:44:34;14.10;77.60
913;DHT22;443;51.448;7.028;2023-04-24T08:47:02;14.10;76.90
913;DHT22;443;51.448;7.028;2023-04-24T08:49:31;14.00;76.40
913;DHT22;443;51.448;7.028;2023-04-24T08:51:58;14.10;77.00
913;DHT22;443;51.448;7.028;2023-04-24T08:54:26;14.00;77.70
913;DHT22;443;51.448;7.028;2023-04-24T08:56:54;14.10;78.50
913;DHT22;443;51.448;7.028;2023-04-24T08:59:26;14.10;77.80
913;DHT22;443;51.448;7.028;2023-04-24T09:01:55;14.10;78.00
913;DHT22;443;51.448;7.028;2023-04-24T09:04:22;14.10;77.30
913;DHT22;443;51.448;7.028;2023-04-24T09:06:51;14.10;77.70
913;DHT22;443;51.448;7.028;2023-04-24T09:09:21;14.10;77.30
913;DHT22;443;51.448;7.028;2023-04-24T09:11:49;14.10;77.30
913;DHT22;443;51.448;7.028;2023-04-24T09:14:16;14.10;77.40
913;DHT22;443;51.448;7.028;2023-04-24T09:16:43;14.20;77.70
913;DHT22;443;51.448;7.028;2023-04-24T09:19:09;14.20;77.60
913;DHT22;443;51.448;7.028;2023-04-24T09:21:36;14.20;77.30
913;DHT22;443;51.448;7.028;2023-04-24T09:24:06;14.20;77.60
913;DHT22;443;51.448;7.028;2023-04-24T09:26:36;14.20;78.00
913;DHT22;443;51.448;7.028;2023-04-24T09:29:03;14.20;79.20
913;DHT22;443;51.448;7.028;2023-04-24T09:31:30;14.20;78.60
913;DHT22;443;51.448;7.028;2023-04-24T09:33:59;14.20;78.30
913;DHT22;443;51.448;7.028;2023-04-24T09:36:31;14.20;78.40
913;DHT22;443;51.448;7.028;2023-04-24T09:39:00;14.20;78.70
913;DHT22;443;51.448;7.028;2023-04-24T09:41:28;14.30;79.00
913;DHT22;443;51.448;7.028;2023-04-24T09:43:56;14.30;77.90
913;DHT22;443;51.448;7.028;2023-04-24T09:46:29;14.20;79.00
913;DHT22;443;51.448;7.028;2023-04-24T09:48:56;14.20;78.70
913;DHT22;443;51.448;7.028;2023-04-24T09:51:34;14.20;76.80
913;DHT22;443;51.448;7.028;2023-04-24T09:54:02;14.20;79.20
913;DHT22;443;51.448;7.028;2023-04-24T09:56:32;14.20;78.80
913;DHT22;443;51.448;7.028;2023-04-24T09:59:04;14.20;79.10
913;DHT22;443;51.448;7.028;2023-04-24T10:01:31;14.20;78.10
913;DHT22;443;51.448;7.028;2023-04-24T10:03:58;14.10;76.10
913;DHT22;443;51.448;7.028;2023-04-24T10:06:31;14.20;77.50
913;DHT22;443;51.448;7.028;2023-04-24T10:08:58;14.20;77.70
913;DHT22;443;51.448;7.028;2023-04-24T10:11:26;14.20;77.40
913;DHT22;443;51.448;7.028;2023-04-24T10:13:54;14.10;77.90
913;DHT22;443;51.448;7.028;2023-04-24T10:16:24;14.10;78.00
913;DHT22;443;51.448;7.028;2023-04-24T10:18:52;14.10;76.70
913;DHT22;443;51.448;7.028;2023-04-24T10:21:19;14.10;77.90
913;DHT22;443;51.448;7.028;2023-04-24T10:23:48;14.20;77.20
913;DHT22;443;51.448;7.028;2023-04-24T10:26:16;14.20;77.10
913;DHT22;443;51.448;7.028;2023-04-24T10:28:45;14.20;76.60
913;DHT22;443;51.448;7.028;2023-04-24T10:31:14;14.10;77.20
913;DHT22;443;51.448;7.028;2023-04-24T10:33:42;14.10;77.10
913;DHT22;443;51.448;7.028;2023-04-24T10:36:10;14.20;77.50
913;DHT22;443;51.448;7.028;2023-04-24T10:38:39;14.20;78.30
913;DHT22;443;51.448;7.028;2023-04-24T10:41:08;14.20;77.10
913;DHT22;443;51.448;7.028;2023-04-24T10:43:41;14.20;78.90
913;DHT22;443;51.448;7.028;2023-04-24T10:46:08;14.20;77.60
913;DHT22;443;51.448;7.028;2023-04-24T10:48:42;14.10;76.70
913;DHT22;443;51.448;7.028;2023-04-24T10:51:12;14.20;78.70
913;DHT22;443;51.448;7.028;2023-04-24T10:53:39;14.20;78.90
913;DHT22;443;51.448;7.028;2023-04-24T10:56:08;14.30;78.90
913;DHT22;443;51.448;7.028;2023-04-24T10:58:37;14.20;78.00
913;DHT22;443;51.448;7.028;2023-04-24T11:01:05;14.20;78.00
913;DHT22;443;51.448;7.028;2023-04-24T11:03:33;14.20;78.60
913;DHT22;443;51.448;7.028;2023-04-24T11:06:03;14.20;77.90
913;DHT22;443;51.448;7.028;2023-04-24T11:08:32;14.20;77.50
913;DHT22;443;51.448;7.028;2023-04-24T11:11:07;14.20;77.20
913;DHT22;443;51.448;7.028;2023-04-24T11:14:06;14.30;78.00
913;DHT22;443;51.448;7.028;2023-04-24T11:16:43;14.30;77.50
913;DHT22;443;51.448;7.028;2023-04-24T11:19:18;14.30;77.80
913;DHT22;443;51.448;7.028;2023-04-24T11:21:48;14.40;77.80
913;DHT22;443;51.448;7.028;2023-04-24T11:24:28;14.30;76.00
913;DHT22;443;51.448;7.028;2023-04-24T11:26:57;14.30;77.00
913;DHT22;443;51.448;7.028;2023-04-24T11:29:39;14.30;76.50
913;DHT22;443;51.448;7.028;2023-04-24T11:35:00;14.20;76.20
913;DHT22;443;51.448;7.028;2023-04-24T11:37:33;14.20;76.30
913;DHT22;443;51.448;7.028;2023-04-24T11:40:00;14.20;76.30
913;DHT22;443;51.448;7.028;2023-04-24T11:42:28;14.30;77.70
913;DHT22;443;51.448;7.028;2023-04-24T11:44:55;14.30;77.50
913;DHT22;443;51.448;7.028;2023-04-24T11:47:28;14.30;77.20
913;DHT22;443;51.448;7.028;2023-04-24T11:49:55;14.30;77.00
913;DHT22;443;51.448;7.028;2023-04-24T11:52:22;14.30;76.90
913;DHT22;443;51.448;7.028;2023-04-24T11:54:50;14.40;77.20
913;DHT22;443;51.448;7.028;2023-04-24T11:57:19;14.30;75.10
913;DHT22;443;51.448;7.028;2023-04-24T11:59:46;14.30;76.30
913;DHT22;443;51.448;7.028;2023-04-24T12:02:21;14.40;75.40
913;DHT22;443;51.448;7.028;2023-04-24T12:04:48;14.30;74.30
913;DHT22;443;51.448;7.028;2023-04-24T12:07:14;14.40;76.30
913;DHT22;443;51.448;7.028;2023-04-24T12:09:42;14.50;76.20
913;DHT22;443;51.448;7.028;2023-04-24T12:12:11;14.50;77.00
913;DHT22;443;51.448;7.028;2023-04-24T12:14:47;14.60;76.30
913;DHT22;443;51.448;7.028;2023-04-24T12:17:14;14.60;77.10
913;DHT22;443;51.448;7.028;2023-04-24T12:19:45;14.50;75.50
913;DHT22;443;51.448;7.028;2023-04-24T12:22:12;14.60;75.50
913;DHT22;443;51.448;7.028;2023-04-24T12:24:57;14.60;74.50
913;DHT22;443;51.448;7.028;2023-04-24T12:27:26;14.50;74.10
913;DHT22;443;51.448;7.028;2023-04-24T12:29:53;14.50;74.20
913;DHT22;443;51.448;7.028;2023-04-24T12:32:20;14.50;76.90
913;DHT22;443;51.448;7.028;2023-04-24T12:34:48;14.50;75.60
913;DHT22;443;51.448;7.028;2023-04-24T12:37:15;14.50;74.60
913;DHT22;443;51.448;7.028;2023-04-24T12:39:57;14.50;74.00
913;DHT22;443;51.448;7.028;2023-04-24T12:42:27;14.50;75.70
913;DHT22;443;51.448;7.028;2023-04-24T12:44:57;14.50;74.80
913;DHT22;443;51.448;7.028;2023-04-24T12:47:25;14.60;75.60
913;DHT22;443;51.448;7.028;2023-04-24T12:49:52;14.60;75.70
913;DHT22;443;51.448;7.028;2023-04-24T12:52:18;14.60;72.20
913;DHT22;443;51.448;7.028;2023-04-24T12:54:46;14.60;73.90
913;DHT22;443;51.448;7.028;2023-04-24T12:57:13;14.60;75.20
913;DHT22;443;51.448;7.028;2023-04-24T12:59:41;14.60;75.10
913;DHT22;443;51.448;7.028;2023-04-24T13:02:08;14.50;72.50
913;DHT22;443;51.448;7.028;2023-04-24T13:04:35;14.60;74.80
913;DHT22;443;51.448;7.028;2023-04-24T13:07:02;14.70;75.80
913;DHT22;443;51.448;7.028;2023-04-24T13:09:29;14.60;71.30
913;DHT22;443;51.448;7.028;2023-04-24T13:11:56;14.70;76.30
913;DHT22;443;51.448;7.028;2023-04-24T13:14:23;14.70;75.00
913;DHT22;443;51.448;7.028;2023-04-24T13:16:51;14.70;74.70
913;DHT22;443;51.448;7.028;2023-04-24T13:19:18;14.70;74.10
913;DHT22;443;51.448;7.028;2023-04-24T13:21:45;14.70;73.80
913;DHT22;443;51.448;7.028;2023-04-24T13:24:11;14.70;75.40
913;DHT22;443;51.448;7.028;2023-04-24T13:26:38;14.70;75.10
913;DHT22;443;51.448;7.028;2023-04-24T13:29:05;14.70;75.20
913;DHT22;443;51.448;7.028;2023-04-24T13:31:32;14.70;73.60
913;DHT22;443;51.448;7.028;2023-04-24T13:34:00;14.70;75.30
913;DHT22;443;51.448;7.028;2023-04-24T13:36:27;14.70;73.40
913;DHT22;443;51.448;7.028;2023-04-24T13:38:54;14.70;72.70
913;DHT22;443;51.448;7.028;2023-04-24T13:41:21;14.70;75.20
913;DHT22;443;51.448;7.028;2023-04-24T13:43:47;14.70;74.90
913;DHT22;443;51.448;7.028;2023-04-24T13:46:14;14.70;74.60
913;DHT22;443;51.448;7.028;2023-04-24T13:48:41;14.70;70.90
913;DHT22;443;51.448;7.028;2023-04-24T13:51:09;14.70;72.40
913;DHT22;443;51.448;7.028;2023-04-24T13:53:36;14.70;74.20
913;DHT22;443;51.448;7.028;2023-04-24T13:56:04;14.70;74.10
913;DHT22;443;51.448;7.028;2023-04-24T13:58:31;14.70;72.00
913;DHT22;443;51.448;7.028;2023-04-24T14:00:58;14.70;74.30
913;DHT22;443;51.448;7.028;2023-04-24T14:03:24;14.70;71.40
913;DHT22;443;51.448;7.028;2023-04-24T14:05:51;14.80;73.60
913;DHT22;443;51.448;7.028;2023-04-24T14:08:19;14.80;70.80
913;DHT22;443;51.448;7.028;2023-04-24T14:10:46;14.80;71.00
913;DHT22;443;51.448;7.028;2023-04-24T14:13:13;14.80;72.10
913;DHT22;443;51.448;7.028;2023-04-24T14:15:40;14.90;71.90
913;DHT22;443;51.448;7.028;2023-04-24T14:18:06;14.90;73.00
913;DHT22;443;51.448;7.028;2023-04-24T14:20:33;14.90;74.20
913;DHT22;443;51.448;7.028;2023-04-24T14:23:00;14.90;71.30
913;DHT22;443;51.448;7.028;2023-04-24T14:25:28;14.90;73.10
913;DHT22;443;51.448;7.028;2023-04-24T14:27:55;14.90;74.00
913;DHT22;443;51.448;7.028;2023-04-24T14:30:22;14.90;72.30
913;DHT22;443;51.448;7.028;2023-04-24T14:32:49;14.90;72.20
913;DHT22;443;51.448;7.028;2023-04-24T14:35:16;14.80;71.10
913;DHT22;443;51.448;7.028;2023-04-24T14:37:42;14.80;72.40
913;DHT22;443;51.448;7.028;2023-04-24T14:40:10;14.80;72.10
913;DHT22;443;51.448;7.028;2023-04-24T14:42:38;14.70;70.40
913;DHT22;443;51.448;7.028;2023-04-24T14:45:06;14.80;73.10
913;DHT22;443;51.448;7.028;2023-04-24T14:47:34;14.80;73.10
913;DHT22;443;51.448;7.028;2023-04-24T14:50:01;14.70;69.20
913;DHT22;443;51.448;7.028;2023-04-24T14:52:28;14.80;73.20
913;DHT22;443;51.448;7.028;2023-04-24T14:54:55;14.80;72.30
913;DHT22;443;51.448;7.028;2023-04-24T14:57:22;14.70;71.70
913;DHT22;443;51.448;7.028;2023-04-24T14:59:50;14.70;72.20
913;DHT22;443;51.448;7.028;2023-04-24T15:02:17;14.70;74.80
913;DHT22;443;51.448;7.028;2023-04-24T15:04:44;14.70;73.50
913;DHT22;443;51.448;7.028;2023-04-24T15:07:11;14.70;74.30
913;DHT22;443;51.448;7.028;2023-04-24T15:09:37;14.60;72.10
913;DHT22;443;51.448;7.028;2023-04-24T15:12:04;14.60;71.70
913;DHT22;443;51.448;7.028;2023-04-24T15:14:31;14.60;73.70
913;DHT22;443;51.448;7.028;2023-04-24T15:16:59;14.60;72.70
913;DHT22;443;51.448;7.028;2023-04-24T15:19:26;14.70;74.30
913;DHT22;443;51.448;7.028;2023-04-24T15:21:53;14.60;72.90
913;DHT22;443;51.448;7.028;2023-04-24T15:24:19;14.70;73.70
913;DHT22;443;51.448;7.028;2023-04-24T15:26:46;14.70;72.90
913;DHT22;443;51.448;7.028;2023-04-24T15:29:13;14.90;72.00
913;DHT22;443;51.448;7.028;2023-04-24T15:31:40;15.10;73.00
913;DHT22;443;51.448;7.028;2023-04-24T15:34:08;15.10;71.40
913;DHT22;443;51.448;7.028;2023-04-24T15:36:35;15.10;71.30
913;DHT22;443;51.448;7.028;2023-04-24T15:39:02;15.20;71.00
913;DHT22;443;51.448;7.028;2023-04-24T15:41:29;15.20;70.50
913;DHT22;443;51.448;7.028;2023-04-24T15:43:57;15.20;71.10
913;DHT22;443;51.448;7.028;2023-04-24T15:46:23;15.20;70.40
913;DHT22;443;51.448;7.028;2023-04-24T15:48:50;15.40;72.30
913;DHT22;443;51.448;7.028;2023-04-24T15:51:18;15.50;72.70
913;DHT22;443;51.448;7.028;2023-04-24T15:53:45;15.50;70.70
913;DHT22;443;51.448;7.028;2023-04-24T15:56:12;15.70;71.00
913;DHT22;443;51.448;7.028;2023-04-24T15:58:39;15.70;72.20
913;DHT22;443;51.448;7.028;2023-04-24T16:01:06;15.60;71.40
913;DHT22;443;51.448;7.028;2023-04-24T16:03:32;15.50;72.50
913;DHT22;443;51.448;7.028;2023-04-24T16:05:59;15.50;71.40
913;DHT22;443;51.448;7.028;2023-04-24T16:08:27;15.40;72.30
913;DHT22;443;51.448;7.028;2023-04-24T16:10:54;15.30;72.90
913;DHT22;443;51.448;7.028;2023-04-24T16:13:21;15.20;69.90
913;DHT22;443;51.448;7.028;2023-04-24T16:15:47;15.40;70.00
913;DHT22;443;51.448;7.028;2023-04-24T16:18:14;15.70;68.00
913;DHT22;443;51.448;7.028;2023-04-24T16:20:42;15.70;70.70
913;DHT22;443;51.448;7.028;2023-04-24T16:23:08;16.00;69.80
913;DHT22;443;51.448;7.028;2023-04-24T16:25:37;16.20;68.90
913;DHT22;443;51.448;7.028;2023-04-24T16:28:03;16.00;66.80
913;DHT22;443;51.448;7.028;2023-04-24T16:30:30;15.80;70.00
913;DHT22;443;51.448;7.028;2023-04-24T16:32:57;15.60;69.40
913;DHT22;443;51.448;7.028;2023-04-24T16:35:24;15.60;69.60
913;DHT22;443;51.448;7.028;2023-04-24T16:37:50;15.50;68.20
913;DHT22;443;51.448;7.028;2023-04-24T16:40:18;15.50;68.90